Time;durP1;ratioP1;P1;durP2;ratioP2;P2;SDS_P1;SDS_P2;PMS_P1;PMS_P2;Temp;Humidity;BMP_temperature;BMP_pressure;BME280_temperature;BME280_humidity;BME280_pressure;Samples;Min_cycle;Max_cycle;Signal;HPM_P1;HPM_P2
2023/12/21 00:02:01;;;;;;;7.75;3.97;;;;;;;9.61;75.87;100776.75;6194259;23;20021;-66
2023/12/21 00:04:30;;;;;;;10.00;3.90;;;;;;;9.60;76.02;100767.06;6195190;23;20035;-66
2023/12/21 00:07:00;;;;;;;7.50;3.78;;;;;;;9.60;76.15;100771.63;6194704;23;20487;-67
2023/12/21 00:09:28;;;;;;;6.63;3.88;;;;;;;9.58;76.91;100763.78;6195497;23;20455;-66
2023/12/21 00:11:57;;;;;;;11.38;4.13;;;;;;;9.57;76.93;100755.94;6194147;23;20083;-67
2023/12/21 00:14:27;;;;;;;8.73;4.20;;;;;;;9.58;77.02;100741.50;6195329;23;20076;-66
2023/12/21 00:16:54;;;;;;;6.32;4.00;;;;;;;9.55;77.33;100737.38;6195360;23;20081;-66
2023/12/21 00:19:22;;;;;;;8.73;5.22;;;;;;;9.56;76.96;100730.97;6195361;23;20083;-66
2023/12/21 00:21:50;;;;;;;9.48;3.92;;;;;;;9.55;76.89;100721.28;6194584;23;20031;-68
2023/12/21 00:24:19;;;;;;;6.75;4.18;;;;;;;9.57;77.23;100727.25;6194224;23;20026;-66
2023/12/21 00:26:47;;;;;;;8.60;4.28;;;;;;;9.53;76.55;100711.81;6195084;23;20060;-66
2023/12/21 00:29:15;;;;;;;10.27;4.22;;;;;;;9.56;76.91;100706.84;6195458;23;20025;-66
2023/12/21 00:31:43;;;;;;;10.57;4.40;;;;;;;9.56;76.85;100706.84;6195498;23;20083;-66
2023/12/21 00:34:10;;;;;;;9.98;4.15;;;;;;;9.58;76.58;100699.38;6194985;23;20047;-66
2023/12/21 00:36:38;;;;;;;6.32;3.35;;;;;;;9.59;76.13;100700.22;6195168;23;20027;-67
2023/12/21 00:39:08;;;;;;;8.05;4.18;;;;;;;9.57;76.55;100689.69;6194150;23;20381;-67
2023/12/21 00:41:37;;;;;;;7.47;4.20;;;;;;;9.58;76.32;100694.03;6195530;23;20075;-67
2023/12/21 00:44:05;;;;;;;5.95;4.45;;;;;;;9.57;76.38;100695.06;6194307;23;20027;-67
2023/12/21 00:46:33;;;;;;;7.68;4.35;;;;;;;9.58;76.83;100687.84;6195618;23;20021;-67
2023/12/21 00:49:01;;;;;;;10.05;4.45;;;;;;;9.58;76.51;100671.75;6195007;23;20055;-67
2023/12/21 00:51:29;;;;;;;13.45;5.00;;;;;;;9.59;76.86;100668.00;6194476;23;20025;-67
2023/12/21 00:53:56;;;;;;;9.10;4.55;;;;;;;9.58;76.30;100658.31;6193880;23;20087;-67
2023/12/21 00:56:24;;;;;;;8.27;4.18;;;;;;;9.58;76.85;100650.28;6195088;23;20017;-67
2023/12/21 00:58:53;;;;;;;12.23;4.97;;;;;;;9.58;76.59;100642.22;6194850;23;20073;-66
2023/12/21 01:01:21;;;;;;;9.00;4.32;;;;;;;9.59;76.21;100638.50;6194824;23;20052;-66
2023/12/21 01:03:49;;;;;;;6.38;4.22;;;;;;;9.57;77.13;100636.03;6196214;23;20025;-67
2023/12/21 01:06:17;;;;;;;13.05;4.93;;;;;;;9.56;76.80;100631.72;6196395;23;20155;-67
2023/12/21 01:08:44;;;;;;;8.85;5.10;;;;;;;9.57;77.22;100630.69;6196416;23;20028;-67
2023/12/21 01:11:12;;;;;;;11.43;4.50;;;;;;;9.57;76.84;100625.31;6196737;23;20099;-67
2023/12/21 01:13:40;;;;;;;11.43;6.35;;;;;;;9.57;76.41;100619.94;6196889;23;20025;-67
2023/12/21 01:16:09;;;;;;;8.85;4.85;;;;;;;9.56;77.15;100620.97;6196848;23;20131;-67
2023/12/21 01:18:38;;;;;;;11.15;4.05;;;;;;;9.56;76.97;100620.97;6196933;23;20025;-67
2023/12/21 01:21:06;;;;;;;8.75;4.18;;;;;;;9.55;76.61;100610.47;6196537;23;20329;-67
2023/12/21 01:23:34;;;;;;;9.63;4.20;;;;;;;9.57;76.60;100600.34;6196090;23;20025;-66
2023/12/21 01:26:02;;;;;;;8.80;3.80;;;;;;;9.57;76.53;100611.91;6197085;23;20025;-67
2023/12/21 01:28:29;;;;;;;8.35;3.85;;;;;;;9.58;76.20;100618.91;6196439;23;20036;-66
2023/12/21 01:30:57;;;;;;;9.13;4.60;;;;;;;9.59;76.61;100615.19;6197417;23;20081;-66
2023/12/21 01:33:27;;;;;;;7.10;4.15;;;;;;;9.61;76.48;100615.78;6196707;23;20021;-67
2023/12/21 01:35:54;;;;;;;15.18;4.25;;;;;;;9.61;76.58;100609.59;6196130;23;20031;-67
2023/12/21 01:38:22;;;;;;;7.00;3.70;;;;;;;9.60;76.53;100594.53;6195864;23;20017;-67
2023/12/21 01:40:50;;;;;;;7.88;4.88;;;;;;;9.62;76.23;100584.41;6197346;23;20024;-67
2023/12/21 01:43:18;;;;;;;7.43;4.25;;;;;;;9.62;76.94;100587.91;6196242;23;20021;-66
2023/12/21 01:45:46;;;;;;;8.18;3.85;;;;;;;9.64;76.83;100590.38;6194680;23;20040;-66
2023/12/21 01:48:14;;;;;;;6.63;3.75;;;;;;;9.60;76.92;100581.94;6196396;23;20091;-66
2023/12/21 01:50:43;;;;;;;10.10;4.75;;;;;;;9.62;76.82;100577.16;6196952;23;20025;-66
2023/12/21 01:53:13;;;;;;;9.52;4.05;;;;;;;9.64;76.73;100579.63;6196029;23;20025;-66
2023/12/21 01:55:42;;;;;;;8.95;3.80;;;;;;;9.63;77.09;100572.63;6196894;23;20055;-66
2023/12/21 01:58:11;;;;;;;10.18;4.20;;;;;;;9.63;76.61;100561.88;6196576;23;20021;-66
2023/12/21 02:00:39;;;;;;;11.18;4.82;;;;;;;9.57;76.89;100558.22;6197393;23;20430;-66
2023/12/21 02:03:07;;;;;;;8.13;4.35;;;;;;;9.62;77.18;100566.44;6196660;23;20132;-66
2023/12/21 02:05:35;;;;;;;12.80;4.38;;;;;;;9.63;77.10;100567.25;6194988;23;20048;-66
2023/12/21 02:08:05;;;;;;;7.93;4.47;;;;;;;9.62;76.86;100563.75;6196126;23;20048;-66
2023/12/21 02:10:33;;;;;;;12.93;5.10;;;;;;;9.61;77.22;100572.03;6197101;23;20029;-67
2023/12/21 02:13:01;;;;;;;8.52;4.65;;;;;;;9.61;76.91;100572.84;6195963;23;20032;-66
2023/12/21 02:15:28;;;;;;;9.93;4.35;;;;;;;9.64;76.98;100574.25;6195989;23;20029;-66
2023/12/21 02:18:01;;;;;;;9.80;4.70;;;;;;;9.63;77.07;100581.50;6196893;23;20017;-67
2023/12/21 02:20:29;;;;;;;8.02;3.90;;;;;;;9.61;76.89;100575.53;6196179;23;20451;-66
2023/12/21 02:22:59;;;;;;;9.50;4.75;;;;;;;9.59;77.45;100556.16;6195466;23;20025;-66
2023/12/21 02:25:29;;;;;;;16.27;5.20;;;;;;;9.59;77.02;100564.19;6196242;23;20031;-67
2023/12/21 02:27:57;;;;;;;10.25;4.72;;;;;;;9.61;76.83;100562.13;6195930;23;20029;-67
2023/12/21 02:30:25;;;;;;;15.60;4.53;;;;;;;9.62;77.46;100552.19;6196495;23;20114;-66
2023/12/21 02:32:53;;;;;;;9.25;4.15;;;;;;;9.61;77.25;100540.66;6196087;23;20455;-66
2023/12/21 02:35:20;;;;;;;12.32;4.18;;;;;;;9.61;77.03;100542.50;6196081;23;20025;-68
2023/12/21 02:37:48;;;;;;;13.10;5.40;;;;;;;9.58;77.18;100525.00;6196081;23;20032;-66
2023/12/21 02:40:16;;;;;;;7.28;4.18;;;;;;;9.60;77.26;100522.09;6196502;23;20025;-66
2023/12/21 02:42:45;;;;;;;9.73;4.80;;;;;;;9.60;76.61;100522.09;6195952;23;20033;-66
2023/12/21 02:45:13;;;;;;;8.25;5.15;;;;;;;9.60;77.18;100519.41;6196682;23;20072;-66
2023/12/21 02:47:41;;;;;;;11.43;4.25;;;;;;;9.62;76.75;100506.59;6196691;23;20024;-66
2023/12/21 02:50:10;;;;;;;10.57;5.00;;;;;;;9.60;77.05;100506.00;6195425;23;20171;-66
2023/12/21 02:52:37;;;;;;;9.57;4.07;;;;;;;9.57;77.08;100501.91;6195239;23;20036;-66
2023/12/21 02:55:06;;;;;;;10.13;5.63;;;;;;;9.61;77.19;100505.78;6196487;23;20025;-67
2023/12/21 02:57:34;;;;;;;11.95;5.20;;;;;;;9.59;76.98;100507.84;6195061;23;20021;-67
2023/12/21 03:00:04;;;;;;;12.93;5.88;;;;;;;9.61;77.04;100510.31;6196486;23;20032;-66
2023/12/21 03:02:32;;;;;;;8.40;5.15;;;;;;;9.61;77.30;100499.59;6195961;23;20049;-66
2023/12/21 03:05:00;;;;;;;10.82;5.05;;;;;;;9.61;76.60;100497.72;6195860;23;20052;-67
2023/12/21 03:07:28;;;;;;;14.32;6.03;;;;;;;9.59;76.63;100499.81;6194747;23;20021;-67
2023/12/21 03:09:56;;;;;;;11.30;4.57;;;;;;;9.61;77.04;100500.41;6196295;23;20032;-67
2023/12/21 03:12:24;;;;;;;13.82;6.00;;;;;;;9.63;77.08;100492.13;6195503;23;20029;-67
2023/12/21 03:14:52;;;;;;;12.85;4.82;;;;;;;9.62;76.87;100480.59;6196423;23;20025;-66
2023/12/21 03:17:21;;;;;;;13.63;4.78;;;;;;;9.62;76.93;100483.25;6195360;23;20447;-67
2023/12/21 03:19:49;;;;;;;13.55;5.25;;;;;;;9.61;77.27;100460.16;6196469;23;20344;-67
2023/12/21 03:22:17;;;;;;;10.15;4.50;;;;;;;9.60;76.96;100429.00;6194357;23;20538;-67
2023/12/21 03:24:45;;;;;;;12.35;5.60;;;;;;;9.62;76.57;100404.63;6195430;23;20035;-67
2023/12/21 03:27:13;;;;;;;9.75;4.80;;;;;;;9.62;76.42;100401.97;6195448;23;20163;-67
2023/12/21 03:29:41;;;;;;;12.65;4.78;;;;;;;9.59;76.63;100394.38;6196217;23;20089;-67
2023/12/21 03:32:09;;;;;;;11.40;4.82;;;;;;;9.63;77.09;100396.38;6194501;23;20079;-66
2023/12/21 03:34:38;;;;;;;8.38;4.45;;;;;;;9.61;76.59;100393.09;6195905;23;20025;-66
2023/12/21 03:37:06;;;;;;;9.68;5.28;;;;;;;9.63;76.51;100392.88;6195057;23;20119;-67
2023/12/21 03:39:34;;;;;;;12.05;4.55;;;;;;;9.61;77.12;100395.78;6195377;23;20021;-66
2023/12/21 03:42:02;;;;;;;12.48;5.07;;;;;;;9.63;76.86;100390.19;6194944;23;20024;-67
2023/12/21 03:44:30;;;;;;;18.10;5.90;;;;;;;9.62;77.25;100384.00;6196658;23;20029;-66
2023/12/21 03:46:58;;;;;;;12.32;4.72;;;;;;;9.62;76.87;100375.13;6195318;23;20044;-66
2023/12/21 03:49:28;;;;;;;11.02;4.43;;;;;;;9.64;76.93;100362.31;6196455;23;20032;-66
2023/12/21 03:51:58;;;;;;;13.70;5.90;;;;;;;9.64;76.75;100376.53;6195090;23;20025;-66
2023/12/21 03:54:25;;;;;;;13.25;5.25;;;;;;;9.66;76.97;100360.22;6194770;23;20407;-67
2023/12/21 03:56:55;;;;;;;12.43;4.78;;;;;;;9.66;77.15;100352.16;6195484;23;20087;-67
2023/12/21 03:59:23;;;;;;;10.85;4.80;;;;;;;9.66;77.26;100352.97;6195852;23;20068;-67
2023/12/21 04:01:58;;;;;;;15.52;5.32;;;;;;;9.66;77.28;100349.47;6195747;23;20079;-67
2023/12/21 04:04:26;;;;;;;14.15;5.03;;;;;;;9.65;77.27;100337.13;6195885;23;20075;-67
2023/12/21 04:06:55;;;;;;;13.15;5.88;;;;;;;9.65;77.19;100334.44;6194588;23;20049;-67
2023/12/21 04:09:24;;;;;;;12.75;4.72;;;;;;;9.65;77.16;100326.38;6194947;23;20020;-67
2023/12/21 04:11:52;;;;;;;9.38;4.70;;;;;;;9.67;76.90;100335.03;6195149;23;20083;-67
2023/12/21 04:14:20;;;;;;;12.90;4.90;;;;;;;9.66;77.46;100333.38;6195674;23;20021;-67
2023/12/21 04:16:48;;;;;;;15.68;6.07;;;;;;;9.65;77.06;100332.56;6195765;23;20055;-67
2023/12/21 04:19:16;;;;;;;13.43;5.45;;;;;;;9.64;77.39;100322.88;6195881;23;20029;-67
2023/12/21 04:21:43;;;;;;;19.15;6.80;;;;;;;9.66;77.26;100307.38;6195036;23;20025;-67
2023/12/21 04:24:11;;;;;;;16.75;5.15;;;;;;;9.67;77.19;100308.19;6194984;23;20052;-67
2023/12/21 04:26:40;;;;;;;17.50;6.60;;;;;;;9.67;77.13;100298.28;6196285;23;20028;-67
2023/12/21 04:29:08;;;;;;;10.93;5.05;;;;;;;9.68;77.25;100296.41;6195249;23;20021;-67
2023/12/21 04:31:37;;;;;;;13.75;5.35;;;;;;;9.68;77.10;100291.84;6194515;23;20035;-67
2023/12/21 04:34:05;;;;;;;13.77;5.70;;;;;;;9.67;77.20;100289.41;6195489;23;20036;-67
2023/12/21 04:36:33;;;;;;;18.33;4.97;;;;;;;9.64;76.69;100273.78;6194464;23;20025;-67
2023/12/21 04:39:01;;;;;;;15.10;7.28;;;;;;;9.67;76.84;100282.19;6194435;23;20040;-67
2023/12/21 04:41:28;;;;;;;14.55;7.60;;;;;;;9.66;76.96;100269.81;6195486;23;20025;-67
2023/12/21 04:43:58;;;;;;;17.13;5.70;;;;;;;9.66;77.21;100248.34;6195103;23;20036;-67
2023/12/21 04:46:25;;;;;;;13.70;5.47;;;;;;;9.66;76.87;100251.03;6195169;23;20036;-67
2023/12/21 04:48:53;;;;;;;13.15;6.03;;;;;;;9.65;76.86;100256.63;6195786;23;20021;-67
2023/12/21 04:51:21;;;;;;;13.88;5.97;;;;;;;9.66;76.90;100253.72;6194892;23;20032;-67
2023/12/21 04:53:49;;;;;;;17.55;6.70;;;;;;;9.64;77.27;100255.81;6193868;23;20025;-67
2023/12/21 04:56:17;;;;;;;12.90;5.18;;;;;;;9.64;77.17;100236.22;6195895;23;20032;-66
2023/12/21 04:58:45;;;;;;;17.63;6.45;;;;;;;9.65;76.96;100230.63;6194912;23;20025;-67
2023/12/21 05:01:14;;;;;;;13.23;6.53;;;;;;;9.65;77.35;100216.38;6195377;23;20032;-66
2023/12/21 05:03:42;;;;;;;17.98;6.93;;;;;;;9.65;76.90;100219.88;6195204;23;20075;-66
2023/12/21 05:06:12;;;;;;;16.58;5.28;;;;;;;9.65;77.04;100200.28;6195160;23;20092;-66
2023/12/21 05:08:39;;;;;;;19.92;7.20;;;;;;;9.65;77.35;100201.09;6194031;23;20021;-66
2023/12/21 05:11:07;;;;;;;14.77;6.03;;;;;;;9.65;77.75;100190.38;6195422;23;20423;-67
2023/12/21 05:13:35;;;;;;;14.65;6.38;;;;;;;9.65;77.72;100189.56;6194004;23;20025;-67
2023/12/21 05:16:03;;;;;;;22.10;7.75;;;;;;;9.63;77.20;100187.09;6195459;23;20021;-67
2023/12/21 05:18:32;;;;;;;16.45;7.45;;;;;;;9.65;77.36;100192.22;6195629;23;20048;-67
2023/12/21 05:21:00;;;;;;;20.70;6.78;;;;;;;9.65;77.25;100190.38;6195378;23;20020;-67
2023/12/21 05:23:28;;;;;;;13.52;6.15;;;;;;;9.63;77.38;100186.28;6193710;23;20129;-67
2023/12/21 05:25:56;;;;;;;15.95;5.70;;;;;;;9.67;77.13;100200.88;6195684;23;20017;-67
2023/12/21 05:28:24;;;;;;;16.08;6.68;;;;;;;9.67;77.54;100200.88;6194912;23;20021;-67
2023/12/21 05:30:52;;;;;;;16.27;5.32;;;;;;;9.66;77.50;100196.56;6195500;23;20024;-67
2023/12/21 05:33:19;;;;;;;14.43;6.25;;;;;;;9.67;77.15;100180.22;6194307;23;20032;-67
2023/12/21 05:35:49;;;;;;;17.60;4.68;;;;;;;9.67;76.88;100155.25;6195099;23;20025;-67
2023/12/21 05:38:17;;;;;;;15.45;5.90;;;;;;;9.68;76.77;100146.16;6193797;23;20099;-67
2023/12/21 05:40:44;;;;;;;14.00;5.05;;;;;;;9.67;77.15;100150.72;6194945;23;20033;-67
2023/12/21 05:43:12;;;;;;;14.77;6.03;;;;;;;9.68;77.54;100162.25;6194258;23;20025;-67
2023/12/21 05:45:40;;;;;;;15.68;5.20;;;;;;;9.68;77.43;100149.66;6193629;23;20025;-68
2023/12/21 05:48:08;;;;;;;16.98;5.40;;;;;;;9.67;77.36;100150.72;6194388;23;20052;-67
2023/12/21 05:50:36;;;;;;;11.48;5.28;;;;;;;9.67;77.30;100157.94;6195465;23;20064;-67
2023/12/21 05:53:06;;;;;;;16.65;5.95;;;;;;;9.66;77.33;100161.66;6195116;23;20021;-67
2023/12/21 05:55:34;;;;;;;17.35;5.95;;;;;;;9.67;77.74;100160.63;6196494;23;20052;-67
2023/12/21 05:58:02;;;;;;;16.25;6.28;;;;;;;9.66;77.48;100150.94;6195941;23;20021;-67
2023/12/21 06:00:30;;;;;;;9.05;4.65;;;;;;;9.69;77.36;100156.66;6196435;23;20031;-67
2023/12/21 06:02:58;;;;;;;11.90;4.50;;;;;;;9.71;77.50;100157.25;6195678;23;20026;-68
2023/12/21 06:05:25;;;;;;;13.30;4.80;;;;;;;9.71;77.57;100156.41;6195625;23;20024;-67
2023/12/21 06:07:53;;;;;;;13.70;5.15;;;;;;;9.71;77.69;100162.59;6195003;23;20032;-68
2023/12/21 06:10:22;;;;;;;10.82;4.78;;;;;;;9.70;77.63;100162.84;6196706;23;20394;-67
2023/12/21 06:12:50;;;;;;;16.73;5.70;;;;;;;9.71;77.91;100164.47;6194957;23;20041;-67
2023/12/21 06:15:17;;;;;;;15.60;5.50;;;;;;;9.68;78.04;100155.03;6195043;23;20040;-67
2023/12/21 06:17:45;;;;;;;12.48;4.47;;;;;;;9.70;78.09;100147.56;6196032;23;20137;-69
2023/12/21 06:20:13;;;;;;;12.60;6.10;;;;;;;9.68;77.86;100143.47;6195364;23;20072;-64
2023/12/21 06:22:41;;;;;;;12.02;5.55;;;;;;;9.70;78.14;100136.81;6194258;23;20031;-65
2023/12/21 06:25:09;;;;;;;12.55;5.63;;;;;;;9.72;78.44;100115.94;6196680;23;20128;-66
2023/12/21 06:27:38;;;;;;;14.50;6.72;;;;;;;9.71;78.13;100094.72;6195028;23;20021;-65
2023/12/21 06:30:07;;;;;;;14.65;5.63;;;;;;;9.70;78.35;100085.03;6196338;23;20017;-68
2023/12/21 06:32:35;;;;;;;12.55;4.70;;;;;;;9.71;78.03;100083.97;6192457;23;20025;-68
2023/12/21 06:35:03;;;;;;;17.17;5.13;;;;;;;9.73;78.09;100095.28;6191436;23;20483;-71
2023/12/21 06:37:31;;;;;;;12.32;4.93;;;;;;;9.74;77.78;100096.94;6190471;23;20100;-70
2023/12/21 06:39:59;;;;;;;16.60;6.53;;;;;;;9.74;78.18;100107.66;6192238;23;20032;-70
2023/12/21 06:42:27;;;;;;;14.32;6.72;;;;;;;9.73;78.31;100104.16;6191365;23;20029;-69
2023/12/21 06:44:56;;;;;;;13.23;5.05;;;;;;;9.74;78.11;100102.28;6191250;23;20079;-68
2023/12/21 06:47:24;;;;;;;14.27;6.20;;;;;;;9.73;77.94;100106.84;6191844;23;20091;-68
2023/12/21 06:49:52;;;;;;;14.00;5.32;;;;;;;9.71;78.47;100087.47;6191896;23;20032;-70
2023/12/21 06:52:21;;;;;;;11.02;5.95;;;;;;;9.70;78.27;100099.25;6191864;23;20025;-66
2023/12/21 06:54:49;;;;;;;12.95;5.55;;;;;;;9.72;77.71;100097.16;6190484;23;20477;-68
2023/12/21 06:57:17;;;;;;;16.98;5.30;;;;;;;9.71;77.63;100082.13;6191625;23;20454;-67
2023/12/21 06:59:45;;;;;;;9.85;5.15;;;;;;;9.74;77.87;100068.22;6191918;23;20024;-70
2023/12/21 07:02:14;;;;;;;10.63;5.03;;;;;;;9.73;78.09;100065.78;6189866;23;20029;-68
2023/12/21 07:04:42;;;;;;;12.93;4.80;;;;;;;9.73;77.81;100052.38;6192169;23;20025;-69
2023/12/21 07:07:09;;;;;;;13.50;4.63;;;;;;;9.74;77.80;100044.06;6191168;23;20025;-71
2023/12/21 07:09:37;;;;;;;12.80;4.53;;;;;;;9.76;77.62;100038.47;6191480;23;20335;-68
2023/12/21 07:12:06;;;;;;;11.25;4.78;;;;;;;9.72;77.66;100027.41;6195232;23;20067;-67
2023/12/21 07:14:34;;;;;;;10.65;4.50;;;;;;;9.73;78.01;100023.66;6196610;23;20103;-67
2023/12/21 07:17:01;;;;;;;13.50;3.88;;;;;;;9.74;78.35;100027.16;6195903;23;20025;-67
2023/12/21 07:19:31;;;;;;;10.68;4.30;;;;;;;9.71;77.64;100015.03;6196422;23;20083;-67
2023/12/21 07:21:58;;;;;;;11.93;4.30;;;;;;;9.74;78.05;100013.75;6195379;23;20087;-67
2023/12/21 07:24:26;;;;;;;11.88;4.32;;;;;;;9.74;78.01;100027.16;6195220;23;20025;-67
2023/12/21 07:26:54;;;;;;;10.95;4.43;;;;;;;9.74;78.19;100027.16;6195632;23;20036;-68
2023/12/21 07:29:22;;;;;;;13.80;4.35;;;;;;;9.74;78.26;100019.13;6196504;23;20025;-67
2023/12/21 07:31:50;;;;;;;9.85;4.25;;;;;;;9.73;78.02;99998.69;6195162;23;20021;-67
2023/12/21 07:34:17;;;;;;;14.57;4.03;;;;;;;9.73;77.94;100002.19;6195760;23;20029;-67
2023/12/21 07:36:47;;;;;;;9.77;3.78;;;;;;;9.73;77.55;99988.78;6194922;23;20045;-67
2023/12/21 07:39:15;;;;;;;16.17;5.07;;;;;;;9.74;78.10;99984.22;6194827;23;20043;-67
2023/12/21 07:41:43;;;;;;;12.35;3.47;;;;;;;9.76;77.83;99977.56;6195020;23;20036;-67
2023/12/21 07:44:11;;;;;;;7.32;3.70;;;;;;;9.77;77.43;99975.72;6195400;23;20087;-67
2023/12/21 07:46:39;;;;;;;10.90;3.78;;;;;;;9.80;77.72;99961.81;6195544;23;20084;-67
2023/12/21 07:49:07;;;;;;;9.98;2.97;;;;;;;9.77;77.21;99952.38;6195952;23;20036;-67
2023/12/21 07:51:34;;;;;;;9.23;3.40;;;;;;;9.74;77.44;99958.22;6195577;23;20020;-67
2023/12/21 07:54:04;;;;;;;8.45;3.67;;;;;;;9.79;77.27;99971.72;6194763;23;20083;-67
2023/12/21 07:56:31;;;;;;;8.38;3.10;;;;;;;9.77;77.48;99963.09;6195201;23;20030;-67
2023/12/21 07:59:04;;;;;;;9.18;3.78;;;;;;;9.77;77.59;99956.94;6195289;23;20032;-68
2023/12/21 08:01:32;;;;;;;12.77;3.45;;;;;;;9.77;77.54;99963.09;6195177;23;20021;-67
2023/12/21 08:04:00;;;;;;;11.85;3.40;;;;;;;9.85;77.24;99961.91;6194876;23;20032;-67
2023/12/21 08:06:28;;;;;;;9.20;2.97;;;;;;;9.75;77.48;99957.16;6194371;23;20031;-66
2023/12/21 08:08:56;;;;;;;9.25;2.65;;;;;;;9.81;77.45;99968.00;6193951;23;20025;-67
2023/12/21 08:11:26;;;;;;;9.85;3.05;;;;;;;9.81;77.60;99959.94;6194566;23;20021;-66
2023/12/21 08:13:57;;;;;;;8.00;2.90;;;;;;;9.81;77.67;99955.41;6194469;23;20028;-66
2023/12/21 08:16:25;;;;;;;9.18;2.63;;;;;;;9.76;77.81;99947.25;6195323;23;20021;-66
2023/12/21 08:18:53;;;;;;;6.30;2.60;;;;;;;9.83;77.92;99934.50;6194462;23;20068;-66
2023/12/21 08:21:21;;;;;;;7.45;2.30;;;;;;;9.83;78.30;99947.91;6194051;23;20020;-67
2023/12/21 08:23:50;;;;;;;10.55;2.63;;;;;;;9.81;78.26;99941.97;6194889;23;20035;-67
2023/12/21 08:26:18;;;;;;;8.77;2.05;;;;;;;9.85;78.29;99928.91;6195323;23;20056;-67
2023/12/21 08:28:47;;;;;;;8.52;3.10;;;;;;;9.82;78.52;99918.66;6195239;23;20021;-67
2023/12/21 08:31:23;;;;;;;12.55;2.88;;;;;;;9.82;78.70;99919.47;6196072;23;20032;-67
2023/12/21 08:33:51;;;;;;;6.03;2.40;;;;;;;9.83;78.88;99922.94;6195378;23;20051;-67
2023/12/21 08:36:19;;;;;;;6.65;2.28;;;;;;;9.82;78.94;99921.31;6194787;23;20025;-67
2023/12/21 08:38:48;;;;;;;9.98;2.60;;;;;;;9.79;78.89;99923.44;6194078;23;20080;-67
2023/12/21 08:41:16;;;;;;;4.55;1.90;;;;;;;9.85;78.61;99926.22;6195846;23;20025;-67
2023/12/21 08:43:46;;;;;;;6.18;2.10;;;;;;;9.84;78.63;99914.66;6194313;23;20157;-67
2023/12/21 08:46:15;;;;;;;9.02;2.45;;;;;;;9.85;78.55;99913.59;6195129;23;20247;-67
2023/12/21 08:48:43;;;;;;;9.82;2.42;;;;;;;9.88;78.79;99898.91;6193715;23;20099;-68
2023/12/21 08:51:10;;;;;;;12.02;2.60;;;;;;;9.89;78.65;99906.72;6194138;23;20063;-67
2023/12/21 08:53:38;;;;;;;7.03;2.13;;;;;;;9.86;79.21;99896.44;6194220;23;20087;-68
2023/12/21 08:56:06;;;;;;;5.85;2.00;;;;;;;9.86;79.45;99909.06;6190855;23;20025;-67
2023/12/21 08:58:35;;;;;;;4.70;1.90;;;;;;;9.86;79.60;99890.28;6190146;23;20029;-67
2023/12/21 09:01:04;;;;;;;7.13;2.08;;;;;;;9.87;79.57;99898.09;6194009;23;20020;-67
2023/12/21 09:03:33;;;;;;;5.85;2.03;;;;;;;9.90;79.74;99884.19;6194278;23;20032;-67
2023/12/21 09:06:02;;;;;;;5.65;2.17;;;;;;;10.06;79.25;99909.44;6194195;23;20055;-67
2023/12/21 09:08:30;;;;;;;9.63;2.10;;;;;;;10.25;78.33;99902.00;6193898;23;20087;-67
2023/12/21 09:10:58;;;;;;;5.30;1.50;;;;;;;10.42;77.21;99879.44;6194156;23;20025;-67
2023/12/21 09:13:26;;;;;;;6.72;2.58;;;;;;;10.68;76.92;99875.28;6193951;23;20085;-67
2023/12/21 09:15:53;;;;;;;4.43;2.20;;;;;;;10.80;76.38;99893.97;6195031;23;20032;-67
2023/12/21 09:18:21;;;;;;;5.63;2.00;;;;;;;10.99;75.71;99884.59;6194439;23;20383;-67
2023/12/21 09:20:50;;;;;;;5.38;1.98;;;;;;;11.17;74.90;99877.28;6194252;23;20105;-68
2023/12/21 09:23:18;;;;;;;5.32;1.60;;;;;;;11.29;74.29;99873.41;6193083;23;20021;-67
2023/12/21 09:25:46;;;;;;;5.20;1.63;;;;;;;11.47;73.50;99869.59;6197349;23;20060;-67
2023/12/21 09:28:17;;;;;;;8.07;2.30;;;;;;;11.59;72.93;99870.28;6196210;23;20025;-68
2023/12/21 09:30:45;;;;;;;4.43;1.75;;;;;;;11.70;72.96;99853.16;6196598;23;20107;-68
2023/12/21 09:33:13;;;;;;;7.57;1.80;;;;;;;11.71;72.77;99853.97;6196234;23;20060;-68
2023/12/21 09:35:41;;;;;;;6.05;2.08;;;;;;;11.83;72.15;99864.63;6196185;23;20059;-68
2023/12/21 09:38:10;;;;;;;3.92;1.92;;;;;;;11.80;72.34;99855.19;6195381;23;20025;-68
2023/12/21 09:40:40;;;;;;;4.78;1.50;;;;;;;11.81;72.29;99840.66;6196687;23;20080;-67
2023/12/21 09:43:12;;;;;;;4.78;1.98;;;;;;;11.81;72.04;99840.66;6195383;23;20025;-68
2023/12/21 09:45:42;;;;;;;6.65;1.98;;;;;;;11.95;71.78;99839.16;6195531;23;20032;-68
2023/12/21 09:48:11;;;;;;;3.80;1.70;;;;;;;11.97;71.34;99841.63;6195597;23;20052;-67
2023/12/21 09:50:42;;;;;;;5.28;1.88;;;;;;;11.96;71.49;99831.91;6196419;23;20430;-67
2023/12/21 09:53:12;;;;;;;5.07;2.08;;;;;;;12.04;71.38;99834.13;6195729;23;20059;-67
2023/12/21 09:55:42;;;;;;;4.70;1.65;;;;;;;12.02;71.36;99838.97;6196594;23;20025;-67
2023/12/21 09:58:11;;;;;;;8.88;1.80;;;;;;;12.01;71.49;99835.47;6195933;23;20025;-68
2023/12/21 10:00:40;;;;;;;5.60;1.40;;;;;;;11.93;71.72;99837.81;6195322;23;20025;-67
2023/12/21 10:03:08;;;;;;;8.20;1.63;;;;;;;11.85;72.23;99840.97;6196194;23;20029;-67
2023/12/21 10:05:36;;;;;;;7.50;1.92;;;;;;;11.70;72.37;99831.63;6196233;23;20025;-67
2023/12/21 10:08:06;;;;;;;4.85;1.83;;;;;;;11.58;73.13;99822.91;6195393;23;20434;-67
2023/12/21 10:10:37;;;;;;;5.68;1.38;;;;;;;11.46;73.39;99822.22;6195950;23;20025;-67
2023/12/21 10:13:05;;;;;;;4.75;1.00;;;;;;;11.26;74.22;99822.00;6194605;23;20057;-67
2023/12/21 10:15:34;;;;;;;4.22;1.70;;;;;;;11.11;74.90;99835.25;6195815;23;20077;-68
2023/12/21 10:18:03;;;;;;;6.15;1.52;;;;;;;10.91;75.40;99809.75;6195820;23;20695;-68
2023/12/21 10:20:32;;;;;;;4.22;1.60;;;;;;;10.89;75.76;99811.06;6194716;23;20297;-67
2023/12/21 10:23:00;;;;;;;7.47;1.50;;;;;;;10.83;76.03;99837.06;6194047;23;20028;-68
2023/12/21 10:25:28;;;;;;;7.15;2.22;;;;;;;10.79;76.41;99813.59;6196402;23;20077;-68
2023/12/21 10:27:57;;;;;;;9.32;1.63;;;;;;;10.70;76.69;99822.09;6196206;23;20033;-67
2023/12/21 10:30:25;;;;;;;9.02;2.03;;;;;;;10.67;76.96;99811.03;6194993;23;20079;-68
2023/12/21 10:32:55;;;;;;;7.60;2.38;;;;;;;10.66;77.30;99820.16;6194850;23;20048;-69
2023/12/21 10:35:25;;;;;;;5.50;1.67;;;;;;;10.75;77.31;99824.03;6195139;23;20032;-71
2023/12/21 10:37:53;;;;;;;9.95;2.58;;;;;;;10.85;77.05;99831.44;6194532;23;20608;-71
2023/12/21 10:40:23;;;;;;;7.18;1.58;;;;;;;11.06;76.26;99839.50;6196309;23;20075;-68
2023/12/21 10:42:51;;;;;;;9.60;2.60;;;;;;;11.08;75.79;99831.19;6195392;23;20116;-69
2023/12/21 10:45:21;;;;;;;11.30;1.98;;;;;;;11.21;75.71;99817.38;6192500;23;20024;-67
2023/12/21 10:48:07;;;;;;;9.55;2.60;;;;;;;11.37;75.35;99818.38;6195546;23;20032;-68
2023/12/21 10:50:37;;;;;;;11.50;2.13;;;;;;;11.56;74.61;99824.22;6194756;23;20029;-69
2023/12/21 10:53:09;;;;;;;12.40;2.58;;;;;;;11.69;73.74;99819.25;6194406;23;20027;-65
2023/12/21 10:55:38;;;;;;;8.07;2.10;;;;;;;11.84;73.76;99810.53;6195722;23;20025;-68
2023/12/21 10:58:07;;;;;;;8.27;2.50;;;;;;;11.93;73.13;99810.88;6194817;23;20432;-67
2023/12/21 11:00:37;;;;;;;4.88;1.55;;;;;;;11.85;73.52;99824.81;6195947;23;20025;-69
2023/12/21 11:03:07;;;;;;;5.85;1.90;;;;;;;11.87;73.45;99822.66;6194902;23;20099;-67
2023/12/21 11:05:36;;;;;;;11.48;1.92;;;;;;;11.85;73.97;99797.88;6195055;23;20429;-68
2023/12/21 11:08:05;;;;;;;9.25;1.77;;;;;;;11.86;73.99;99788.75;6194587;23;20029;-67
2023/12/21 11:10:35;;;;;;;11.05;2.45;;;;;;;11.95;73.91;99789.91;6194748;23;20093;-67
2023/12/21 11:13:03;;;;;;;4.47;1.55;;;;;;;11.90;73.91;99787.16;6194475;23;20021;-66
2023/12/21 11:15:32;;;;;;;10.77;1.73;;;;;;;12.02;73.64;99807.47;6195813;23;20044;-68
2023/12/21 11:18:07;;;;;;;4.95;1.50;;;;;;;12.03;73.09;99781.34;6195447;23;20021;-68
2023/12/21 11:20:40;;;;;;;5.10;1.25;;;;;;;12.06;72.98;99791.59;6193955;23;20035;-66
2023/12/21 11:23:15;;;;;;;6.25;1.27;;;;;;;12.00;73.42;99798.00;6193496;23;20021;-66
2023/12/21 11:25:43;;;;;;;5.22;1.20;;;;;;;12.05;73.58;99771.94;6194397;23;20091;-66
2023/12/21 11:28:11;;;;;;;3.88;1.40;;;;;;;12.09;73.21;99774.13;6194469;23;20089;-66
2023/12/21 11:30:39;;;;;;;5.72;1.08;;;;;;;12.10;73.59;99763.09;6195720;23;20025;-68
2023/12/21 11:33:09;;;;;;;4.10;1.65;;;;;;;12.14;73.37;99772.25;6194739;23;20428;-67
2023/12/21 11:35:37;;;;;;;6.60;1.10;;;;;;;12.07;73.22;99755.53;6194000;23;20025;-66